• Join FlightAware (Why Join?)
  • Login
  • US Flag 
08:39AM EDT


 

Airport Tracker/Info


-or-


 

Live Flight TrackerFlight Track Log ✈ N41166 ✈ 03-Jul-2013 ✈ KACK - KMPO

Flight Track Log - Related Links

Times and Time Zones

All times are in EDT time to prevent confusion due to time zone crossing. See the N41166 flight status page for this flight to view local times or setup timezone preferences in your user account.

Time Position Orientation Groundspeed Altitude Reporting Facility
EDT Latitude Longitude Course Direction KTS MPH feet Rate Location/Type
01:20PM 41.3308 -70.3513 283° West  Level FlightAware Approximate
01:21PM 41.3515 -70.3932 282° West  Level FlightAware Approximate
01:22PM 41.3596 -70.4456 282° West  Level FlightAware Approximate
01:23PM 41.3677 -70.4980 282° West  Level FlightAware Approximate
01:24PM 41.3758 -70.5505 282° West  Level FlightAware Approximate
01:25PM 41.3844 -70.6027 298° West  Level FlightAware Approximate
01:26PM 41.4029 -70.6502 298° West  Level FlightAware Approximate
01:27PM 41.4215 -70.6977 297° West  Level FlightAware Approximate
01:28PM 41.4400 -70.7453 297° West  Level FlightAware Approximate
01:29PM 41.4585 -70.7929 297° West  Level FlightAware Approximate
01:30PM 41.4770 -70.8405 297° West  Level FlightAware Approximate
01:30PM 41.4394 -70.7400 302° West 160 184 8,000  Level Boston Center
01:31PM 41.4954 -70.8881 297° West  Level FlightAware Approximate
01:31PM 41.4631 -70.8031 297° West 160 184 8,000  Level Boston Center
01:32PM 41.5123 -70.9368 294° West  Level FlightAware Approximate
01:32PM 41.4847 -70.8522 300° West 159 183 8,000  Level Boston Center
01:33PM 41.5322 -70.9833 302° West  Level FlightAware Approximate
01:33PM 41.5083 -70.9100 299° West 161 185 8,100  Level Boston Center
01:34PM 41.5535 -71.0288 302° West  Level FlightAware Approximate
01:34PM 41.5156 -70.9625 280° West 151 174 8,300  Level Boston Center
01:35PM 41.5748 -71.0743 302° West  Level FlightAware Approximate
01:35PM 41.5097 -71.0125 261° West 141 162 8,500  Level Boston Center
01:36PM 41.5042 -71.0653 262° West 147 169 8,500  Level Boston Center
01:37PM 41.5008 -71.1264 266° West 161 185 8,500  Level Boston Center
01:38PM 41.4953 -71.1875 263° West 155 178 8,600  Climbing Boston Center
01:39PM 41.4936 -71.2428 268° West 153 176 8,500 -60 Descending Boston Center
01:40PM 41.4900 -71.2956 265° West 151 174 8,500  Level Boston Center
01:41PM 41.4844 -71.3511 262° West 151 174 8,600  Climbing Boston Center
01:42PM 41.4808 -71.4094 265° West 150 173 8,500  Descending Boston Center
01:43PM 41.4772 -71.4675 265° West 150 173 8,600  Climbing Boston Center
01:44PM 41.4733 -71.5286 265° West 151 174 8,600  Level Boston Center
01:45PM 41.4697 -71.5814 265° West 149 171 8,600 -60 Level Boston Center
01:46PM 41.4639 -71.6422 263° West 149 171 8,500 -60 Descending Boston Center
01:47PM 41.4622 -71.6978 268° West 149 171 8,500  Level Boston Center
01:48PM 41.4583 -71.7503 264° West 148 170 8,500  Level Boston Center
01:49PM 41.4544 -71.8058 265° West 149 171 8,600  Climbing Boston Center
01:50PM 41.4506 -71.8558 264° West 148 170 8,600 -60 Level Boston Center
01:51PM 41.4467 -71.9139 265° West 148 170 8,500 -60 Descending Boston Center
01:52PM 41.4428 -71.9667 264° West 146 168 8,500  Level Boston Center
01:53PM 41.4367 -72.0219 262° West 147 169 8,500  Level Boston Center
01:54PM 41.4350 -72.0747 268° West 147 169 8,500  Level Boston Center
01:55PM 41.4308 -72.1300 264° West 148 170 8,500  Level Boston Center
01:56PM 41.4228 -72.1881 260° West 149 171 8,600  Climbing Boston Center
01:57PM 41.4186 -72.2436 264° West 146 168 8,600 -60 Level Boston Center
01:58PM 41.4144 -72.2961 264° West 151 174 8,500 -60 Descending Boston Center
01:59PM 41.4125 -72.3542 267° West 151 174 8,500  Level Boston Center
02:01PM 41.4106 -72.4153 268° West 148 170 8,600  Climbing Boston Center
02:03PM 41.4000 -72.5333 263° West 149 171 8,500 -60 Descending New York TRACON
02:04PM 41.4000 -72.6000 270° West 151 174 8,500  Level New York TRACON
02:05PM 41.3833 -72.6500 246° West 152 175 8,500  Level New York TRACON
02:06PM 41.3833 -72.7000 270° West 149 171 8,500  Level New York TRACON
02:07PM 41.3833 -72.7500 270° West 151 174 8,500  Level New York TRACON
02:08PM 41.3667 -72.8167 252° West 151 174 8,500  Level New York TRACON
02:09PM 41.3667 -72.8667 270° West 150 173 8,500  Level New York TRACON
02:10PM 41.3667 -72.9167 270° West 157 181 8,500  Level New York TRACON
02:11PM 41.3667 -72.9833 270° West 152 175 8,500  Level New York TRACON
02:12PM 41.3500 -73.0333 246° West 152 175 8,500  Level New York TRACON
02:13PM 41.3500 -73.0833 270° West 151 174 8,500  Level New York TRACON
02:14PM 41.3500 -73.1500 270° West 154 177 8,600  Climbing New York TRACON
02:15PM 41.3500 -73.2000 270° West 152 175 8,500 -60 Descending New York TRACON
02:16PM 41.3333 -73.2500 246° West 153 176 8,500  Level New York TRACON
02:17PM 41.3333 -73.3167 270° West 153 176 8,500  Level New York TRACON
02:18PM 41.3167 -73.3667 246° West 156 180 8,500  Level New York TRACON
02:19PM 41.3000 -73.4167 246° West 153 176 8,500  Level New York TRACON
02:20PM 41.2833 -73.4667 246° West 155 178 8,600  Climbing New York TRACON
02:21PM 41.2833 -73.5167 270° West 158 182 8,500  Descending New York TRACON
02:22PM 41.2833 -73.5833 270° West 156 180 8,600  Climbing New York TRACON
02:23PM 41.2833 -73.6333 270° West 155 178 8,500 -60 Descending New York TRACON
02:24PM 41.2667 -73.7000 252° West 157 181 8,500  Level New York TRACON
02:26PM 41.2500 -73.8000 258° West 153 176 8,500  Level New York TRACON
02:27PM 41.2167 -73.8500 228° Southwest 151 174 8,600  Climbing New York TRACON
02:28PM 41.2000 -73.9000 246° West 154 177 8,600 -60 Level New York TRACON
02:29PM 41.1833 -73.9500 246° West 156 180 8,500 -60 Descending New York TRACON
02:30PM 41.1833 -74.0000 270° West 154 177 8,500  Level New York TRACON
02:31PM 41.1667 -74.0667 252° West 158 182 8,500  Level New York TRACON
02:32PM 41.1667 -74.1167 270° West 160 184 8,500  Level New York TRACON
02:33PM 41.1667 -74.1833 270° West 160 184 8,500  Level New York TRACON
02:34PM 41.1667 -74.2500 270° West 158 182 8,500  Level New York TRACON
02:35PM 41.1667 -74.3000 270° West 162 186 8,600  Climbing New York TRACON
02:36PM 41.1667 -74.3667 270° West 162 186 8,500  Descending New York TRACON
02:37PM 41.1500 -74.4167 246° West 158 182 8,600  Climbing New York TRACON
02:38PM 41.1500 -74.4667 270° West 160 184 8,500 -60 Descending New York TRACON
02:39PM 41.1500 -74.5333 270° West 160 184 8,500 -240 Level New York TRACON
02:40PM 41.1667 -74.6000 288° West 169 194 8,000 -600 Descending New York TRACON
02:41PM 41.1667 -74.6500 270° West 175 201 7,300 -780 Descending New York TRACON
02:42PM 41.1833 -74.7167 288° West 179 206 6,500 -900 Descending New York TRACON
02:43PM 41.2167 -74.7667 312° West 177 204 5,600 -900 Descending New York TRACON
02:45PM 41.1597 -74.8094 209° Southwest  Level FlightAware Approximate
02:52PM 41.1333 -75.1834 270° West  Level FlightAware Approximate
02:53PM 41.1334 -75.2388 270° West  Level FlightAware Approximate
02:54PM 41.1334 -75.2943 270° West  Level FlightAware Approximate
02:55PM 41.1333 -75.3497 270° West  Level FlightAware Approximate
02:56PM 41.1333 -75.3667 270° West  Level FlightAware Approximate
02:57PM 41.1377 -75.3801 270° West  Level Estimated
02:58PM 41.1377 -75.3801 270° West  Level Estimated
02:59PM 41.1377 -75.3801 270° West  Level Estimated
03:00PM 41.1377 -75.3801 270° West  Level Estimated
03:01PM 41.1377 -75.3801 270° West  Level Estimated
03:02PM 41.1377 -75.3801 270° West  Level Estimated
03:03PM 41.1377 -75.3801 270° West  Level Estimated
03:04PM 41.1377 -75.3801 270° West  Level Estimated
03:05PM 41.1377 -75.3801 270° West  Level Estimated
03:06PM 41.1377 -75.3801 270° West  Level Estimated
03:07PM 41.1377 -75.3801 270° West  Level Estimated
03:08PM 41.1377 -75.3801 270° West  Level Estimated
03:09PM 41.1377 -75.3801 270° West  Level Estimated
03:10PM 41.1377 -75.3801 270° West  Level Estimated
03:11PM 41.1377 -75.3801 270° West  Level Estimated